createdAt,value
2018-08-04T00:00:31.902Z,20.66
2018-08-04T00:01:31.889Z,20.70
2018-08-04T00:02:31.880Z,20.61
2018-08-04T00:03:31.874Z,20.67
2018-08-04T00:04:31.870Z,20.70
2018-08-04T00:05:31.858Z,20.74
2018-08-04T00:06:31.856Z,20.69
2018-08-04T00:07:31.844Z,20.84
2018-08-04T00:08:31.842Z,20.84
2018-08-04T00:09:31.838Z,20.77
2018-08-04T00:10:31.826Z,20.88
2018-08-04T00:11:31.819Z,20.77
2018-08-04T00:12:31.813Z,20.74
2018-08-04T00:13:31.805Z,20.80
2018-08-04T00:14:31.799Z,20.85
2018-08-04T00:15:31.797Z,20.77
2018-08-04T00:16:31.784Z,20.73
2018-08-04T00:17:31.778Z,20.72
2018-08-04T00:18:31.775Z,20.79
2018-08-04T00:19:31.780Z,20.67
2018-08-04T00:20:31.763Z,20.76
2018-08-04T00:21:31.749Z,20.66
2018-08-04T00:22:31.745Z,20.72
2018-08-04T00:23:31.738Z,20.67
2018-08-04T00:24:31.736Z,20.67
2018-08-04T00:25:31.732Z,20.69
2018-08-04T00:26:31.718Z,20.61
2018-08-04T00:27:31.709Z,20.66
2018-08-04T00:28:31.709Z,20.64
2018-08-04T00:29:31.699Z,20.70
2018-08-04T00:30:31.685Z,20.69
2018-08-04T00:31:31.685Z,20.67
2018-08-04T00:32:31.672Z,20.69
2018-08-04T00:33:31.664Z,20.64
2018-08-04T00:34:31.662Z,20.61
2018-08-04T00:35:31.655Z,20.70
2018-08-04T00:36:31.651Z,20.51
2018-08-04T00:37:31.645Z,20.55
2018-08-04T00:38:31.639Z,20.51
2018-08-04T00:39:31.627Z,20.58
2018-08-04T00:40:31.618Z,20.61
2018-08-04T00:41:31.613Z,20.55
2018-08-04T00:42:31.606Z,20.51
2018-08-04T00:43:31.599Z,20.61
2018-08-04T00:44:31.590Z,20.61
2018-08-04T00:45:31.589Z,20.58
2018-08-04T00:46:31.578Z,20.55
2018-08-04T00:47:31.574Z,20.48
2018-08-04T00:48:31.565Z,20.57
2018-08-04T00:49:31.558Z,20.58
2018-08-04T00:50:31.549Z,20.54
2018-08-04T00:51:31.553Z,20.58
2018-08-04T00:52:31.540Z,20.50
2018-08-04T00:53:31.534Z,20.54
2018-08-04T00:54:31.521Z,20.69
2018-08-04T00:55:31.516Z,20.70
2018-08-04T00:56:31.511Z,20.70
2018-08-04T00:57:31.505Z,20.72
2018-08-04T00:58:31.497Z,20.76
2018-08-04T00:59:31.492Z,20.70
2018-08-04T01:00:31.480Z,20.74
2018-08-04T01:01:31.476Z,20.79
2018-08-04T01:02:31.472Z,20.76
2018-08-04T01:03:31.464Z,20.72
2018-08-04T01:04:31.457Z,20.84
2018-08-04T01:05:31.452Z,20.84
2018-08-04T01:06:31.447Z,20.84
2018-08-04T01:07:31.433Z,20.85
2018-08-04T01:08:31.430Z,20.84
2018-08-04T01:09:31.426Z,20.88
2018-08-04T01:10:31.414Z,20.84
2018-08-04T01:11:31.406Z,20.84
2018-08-04T01:12:31.399Z,20.85
2018-08-04T01:13:31.390Z,20.87
2018-08-04T01:14:31.385Z,20.87
2018-08-04T01:15:31.382Z,20.84
2018-08-04T01:16:31.374Z,20.87
2018-08-04T01:17:31.369Z,20.91
2018-08-04T01:18:31.357Z,20.87
2018-08-04T01:19:31.350Z,20.84
2018-08-04T01:20:31.343Z,20.82
2018-08-04T01:21:31.338Z,20.84
2018-08-04T01:22:31.336Z,20.85
2018-08-04T01:23:31.326Z,20.87
2018-08-04T01:24:31.320Z,20.95
2018-08-04T01:25:31.309Z,20.95
2018-08-04T01:26:31.301Z,20.87
2018-08-04T01:27:31.293Z,20.87
2018-08-04T01:28:31.292Z,20.95
2018-08-04T01:29:31.282Z,20.84
2018-08-04T01:30:31.272Z,20.85
2018-08-04T01:31:31.273Z,20.95
2018-08-04T01:32:31.268Z,20.97
2018-08-04T01:33:31.256Z,20.87
2018-08-04T01:34:31.247Z,20.85
2018-08-04T01:35:31.247Z,20.82
2018-08-04T01:36:31.237Z,20.80
2018-08-04T01:37:31.230Z,20.87
2018-08-04T01:38:31.217Z,20.79
2018-08-04T01:39:31.224Z,20.89
2018-08-04T01:40:31.213Z,20.85
2018-08-04T01:41:31.197Z,20.91
2018-08-04T01:42:31.190Z,20.87
2018-08-04T01:43:31.190Z,20.88
2018-08-04T01:44:31.186Z,20.84
2018-08-04T01:45:31.172Z,20.92
2018-08-04T01:46:31.165Z,20.87
2018-08-04T01:47:31.171Z,20.87
2018-08-04T01:48:31.157Z,20.89
2018-08-04T01:49:31.149Z,20.95
2018-08-04T01:50:31.141Z,20.88
2018-08-04T01:51:31.131Z,20.84
2018-08-04T01:52:31.125Z,20.87
2018-08-04T01:53:31.131Z,20.85
2018-08-04T01:54:31.114Z,20.95
2018-08-04T01:55:31.100Z,20.85
2018-08-04T01:56:31.096Z,20.84
2018-08-04T01:57:31.092Z,20.88
2018-08-04T01:58:31.083Z,20.84
2018-08-04T01:59:31.084Z,20.87
2018-08-04T02:00:31.072Z,20.82
2018-08-04T02:01:31.062Z,20.84
2018-08-04T02:02:31.050Z,20.84
2018-08-04T02:03:31.047Z,20.89
2018-08-04T02:04:31.042Z,20.80
2018-08-04T02:05:31.034Z,20.84
2018-08-04T02:06:31.030Z,20.84
2018-08-04T02:07:31.020Z,20.87
2018-08-04T02:08:31.016Z,20.87
2018-08-04T02:09:31.012Z,20.87
2018-08-04T02:10:30.999Z,20.92
2018-08-04T02:11:30.991Z,20.84
2018-08-04T02:12:30.987Z,20.84
2018-08-04T02:13:30.977Z,20.87
2018-08-04T02:14:30.975Z,20.82
2018-08-04T02:15:30.967Z,20.82
2018-08-04T02:16:30.958Z,20.79
2018-08-04T02:17:30.951Z,20.77
2018-08-04T02:18:30.944Z,20.84
2018-08-04T02:19:30.941Z,20.77
2018-08-04T02:20:30.932Z,20.77
2018-08-04T02:21:30.924Z,20.70
2018-08-04T02:22:30.917Z,20.73
2018-08-04T02:23:30.909Z,20.70
2018-08-04T02:24:30.908Z,20.72
2018-08-04T02:25:30.897Z,20.70
2018-08-04T02:26:30.893Z,20.70
2018-08-04T02:27:30.878Z,20.69
2018-08-04T02:28:30.874Z,20.64
2018-08-04T02:29:30.871Z,20.59
2018-08-04T02:30:30.861Z,20.64
2018-08-04T02:31:30.858Z,20.58
2018-08-04T02:32:30.850Z,20.55
2018-08-04T02:33:30.842Z,20.55
2018-08-04T02:34:30.836Z,20.51
2018-08-04T02:35:30.833Z,20.43
2018-08-04T02:36:30.823Z,20.48
2018-08-04T02:37:30.812Z,20.38
2018-08-04T02:38:30.807Z,20.42
2018-08-04T02:39:30.807Z,20.42
2018-08-04T02:40:30.795Z,20.43
2018-08-04T02:41:30.785Z,20.32
2018-08-04T02:42:30.781Z,20.38
2018-08-04T02:43:30.771Z,20.38
2018-08-04T02:44:30.765Z,20.36
2018-08-04T02:45:30.756Z,20.33
2018-08-04T02:46:30.752Z,20.31
2018-08-04T02:47:30.746Z,20.33
2018-08-04T02:48:30.742Z,20.35
2018-08-04T02:49:30.728Z,20.32
2018-08-04T02:50:30.722Z,20.31
2018-08-04T02:51:30.718Z,20.38
2018-08-04T02:52:30.710Z,20.33
2018-08-04T02:53:30.710Z,20.41
2018-08-04T02:54:30.700Z,20.41
2018-08-04T02:55:30.692Z,20.38
2018-08-04T02:56:30.684Z,20.36
2018-08-04T02:57:30.680Z,20.41
2018-08-04T02:58:30.664Z,20.42
2018-08-04T02:59:30.658Z,20.41
2018-08-04T03:00:30.653Z,20.39
2018-08-04T03:01:30.645Z,20.43
2018-08-04T03:02:30.655Z,20.41
2018-08-04T03:03:30.633Z,20.47
2018-08-04T03:04:30.625Z,20.52
2018-08-04T03:05:30.623Z,20.51
2018-08-04T03:06:30.612Z,20.51
2018-08-04T03:07:30.614Z,20.54
2018-08-04T03:08:30.621Z,20.52
2018-08-04T03:09:30.593Z,20.57
2018-08-04T03:10:30.590Z,20.55
2018-08-04T03:11:30.577Z,20.51
2018-08-04T03:12:30.575Z,20.52
2018-08-04T03:13:30.570Z,20.48
2018-08-04T03:14:30.558Z,20.57
2018-08-04T03:15:30.549Z,20.58
2018-08-04T03:16:30.543Z,20.59
2018-08-04T03:17:30.539Z,20.48
2018-08-04T03:18:30.526Z,20.57
2018-08-04T03:19:30.526Z,20.52
2018-08-04T03:20:30.516Z,20.48
2018-08-04T03:21:30.507Z,20.57
2018-08-04T03:22:30.500Z,20.64
2018-08-04T03:23:30.493Z,20.62
2018-08-04T03:24:30.493Z,20.55
2018-08-04T03:25:30.481Z,20.59
2018-08-04T03:26:30.479Z,20.52
2018-08-04T03:27:30.468Z,20.51
2018-08-04T03:28:30.455Z,20.51
2018-08-04T03:29:30.451Z,20.57
2018-08-04T03:30:30.444Z,20.59
2018-08-04T03:31:30.440Z,20.57
2018-08-04T03:32:30.434Z,20.57
2018-08-04T03:33:30.422Z,20.55
2018-08-04T03:34:30.411Z,20.62
2018-08-04T03:35:30.410Z,20.59
2018-08-04T03:36:30.401Z,20.64
2018-08-04T03:37:30.399Z,20.57
2018-08-04T03:38:30.392Z,20.58
2018-08-04T03:39:30.384Z,20.54
2018-08-04T03:40:30.384Z,20.55
2018-08-04T03:41:30.366Z,20.58
2018-08-04T03:42:30.358Z,20.55
2018-08-04T03:43:30.354Z,20.58
2018-08-04T03:44:30.346Z,20.50
2018-08-04T03:45:30.342Z,20.55
2018-08-04T03:46:30.329Z,20.52
2018-08-04T03:47:30.327Z,20.52
2018-08-04T03:48:30.319Z,20.47
2018-08-04T03:49:30.313Z,20.43
2018-08-04T03:50:30.307Z,20.41
2018-08-04T03:51:30.298Z,20.38
2018-08-04T03:52:30.289Z,20.39
2018-08-04T03:53:30.285Z,20.36
2018-08-04T03:54:30.278Z,20.41
2018-08-04T03:55:30.270Z,20.42
2018-08-04T03:56:30.266Z,20.35
2018-08-04T03:57:30.262Z,20.43
2018-08-04T03:58:30.249Z,20.38
2018-08-04T03:59:30.243Z,20.41
2018-08-04T04:00:30.244Z,20.50
2018-08-04T04:01:30.232Z,20.42
2018-08-04T04:02:30.219Z,20.39
2018-08-04T04:03:30.213Z,20.50
2018-08-04T04:04:30.210Z,20.50
2018-08-04T04:05:30.200Z,20.50
2018-08-04T04:06:30.192Z,20.42
2018-08-04T04:07:30.194Z,20.51
2018-08-04T04:08:30.181Z,20.39
2018-08-04T04:09:30.175Z,20.54
2018-08-04T04:10:30.171Z,20.43
2018-08-04T04:11:30.157Z,20.47
2018-08-04T04:12:30.151Z,20.39
2018-08-04T04:13:30.146Z,20.36
2018-08-04T04:14:30.136Z,20.38
2018-08-04T04:15:30.133Z,20.41
2018-08-04T04:16:30.125Z,20.32
2018-08-04T04:17:30.117Z,20.31
2018-08-04T04:18:30.110Z,20.21
2018-08-04T04:19:30.105Z,20.23
2018-08-04T04:20:30.098Z,20.28
2018-08-04T04:21:30.091Z,20.28
2018-08-04T04:22:30.081Z,20.29
2018-08-04T04:23:30.080Z,20.32
2018-08-04T04:24:30.066Z,20.28
2018-08-04T04:25:30.059Z,20.35
2018-08-04T04:26:30.054Z,20.26
2018-08-04T04:27:30.048Z,20.31
2018-08-04T04:28:30.038Z,20.32
2018-08-04T04:29:30.030Z,20.31
2018-08-04T04:30:30.023Z,20.35
2018-08-04T04:31:30.021Z,20.32
2018-08-04T04:32:30.020Z,20.36
2018-08-04T04:33:30.005Z,20.39
2018-08-04T04:34:29.998Z,20.42
2018-08-04T04:35:29.988Z,20.36
2018-08-04T04:36:29.985Z,20.39
2018-08-04T04:37:29.972Z,20.41
2018-08-04T04:38:29.968Z,20.31
2018-08-04T04:39:29.962Z,20.33
2018-08-04T04:40:29.962Z,20.32
2018-08-04T04:41:29.948Z,20.38
2018-08-04T04:42:29.937Z,20.24
2018-08-04T04:43:29.937Z,20.33
2018-08-04T04:44:29.925Z,20.42
2018-08-04T04:45:29.915Z,20.36
2018-08-04T04:46:29.911Z,20.38
2018-08-04T04:47:29.901Z,20.38
2018-08-04T04:48:29.927Z,20.36
2018-08-04T04:49:29.899Z,20.39
2018-08-04T04:50:29.888Z,20.38
2018-08-04T04:51:29.880Z,20.39
2018-08-04T04:52:29.870Z,20.38
2018-08-04T04:53:29.862Z,20.36
2018-08-04T04:54:29.857Z,20.50
2018-08-04T04:55:29.924Z,20.39
2018-08-04T04:56:29.840Z,20.41
2018-08-04T04:57:29.834Z,20.52
2018-08-04T04:58:29.823Z,20.48
2018-08-04T04:59:29.823Z,20.51
2018-08-04T05:00:29.816Z,20.58
2018-08-04T05:01:29.809Z,20.52
2018-08-04T05:02:29.796Z,20.58
2018-08-04T05:03:29.790Z,20.51
2018-08-04T05:04:29.789Z,20.54
2018-08-04T05:05:29.780Z,20.59
2018-08-04T05:06:29.767Z,20.54
2018-08-04T05:07:29.766Z,20.59
2018-08-04T05:08:29.755Z,20.54
2018-08-04T05:09:29.749Z,20.54
2018-08-04T05:10:29.747Z,20.50
2018-08-04T05:11:29.742Z,20.47
2018-08-04T05:12:29.732Z,20.41
2018-08-04T05:13:29.721Z,20.35
2018-08-04T05:14:29.714Z,20.39
2018-08-04T05:15:29.708Z,20.41
2018-08-04T05:16:29.702Z,20.42
2018-08-04T05:17:29.694Z,20.47
2018-08-04T05:18:29.691Z,20.47
2018-08-04T05:19:29.677Z,20.55
2018-08-04T05:20:29.680Z,20.58
2018-08-04T05:21:29.727Z,20.58
2018-08-04T05:22:29.657Z,20.62
2018-08-04T05:23:29.650Z,20.66
2018-08-04T05:24:29.646Z,20.67
2018-08-04T05:25:29.632Z,20.70
2018-08-04T05:26:29.633Z,20.70
2018-08-04T05:27:29.626Z,20.73
2018-08-04T05:28:29.614Z,20.74
2018-08-04T05:29:29.607Z,20.84
2018-08-04T05:30:29.604Z,20.84
2018-08-04T05:31:29.597Z,20.87
2018-08-04T05:32:29.594Z,20.88
2018-08-04T05:33:29.577Z,20.80
2018-08-04T05:34:29.575Z,20.99
2018-08-04T05:35:29.565Z,20.97
2018-08-04T05:36:29.559Z,20.92
2018-08-04T05:37:29.643Z,20.99
2018-08-04T05:38:29.545Z,21.01
2018-08-04T05:39:29.549Z,21.12
2018-08-04T05:40:29.532Z,21.06
2018-08-04T05:41:29.526Z,21.09
2018-08-04T05:42:29.516Z,21.16
2018-08-04T05:43:29.598Z,21.17
2018-08-04T05:44:29.506Z,21.25
2018-08-04T05:45:29.499Z,21.31
2018-08-04T05:46:29.487Z,21.32
2018-08-04T05:47:29.480Z,21.31
2018-08-04T05:48:29.475Z,21.42
2018-08-04T05:49:29.469Z,21.35
2018-08-04T05:50:29.463Z,21.37
2018-08-04T05:51:29.459Z,21.37
2018-08-04T05:52:29.449Z,21.44
2018-08-04T05:53:29.444Z,21.42
2018-08-04T05:54:29.434Z,21.35
2018-08-04T05:55:29.434Z,21.52
2018-08-04T05:56:29.430Z,21.43
2018-08-04T05:57:29.418Z,21.42
2018-08-04T05:58:29.408Z,21.52
2018-08-04T05:59:29.407Z,21.54
2018-08-04T06:00:29.400Z,21.59
2018-08-04T06:01:29.390Z,21.52
2018-08-04T06:02:29.380Z,21.52
2018-08-04T06:03:29.382Z,21.61
2018-08-04T06:04:29.372Z,21.56
2018-08-04T06:05:29.380Z,21.65
2018-08-04T06:06:29.356Z,21.68
2018-08-04T06:07:29.353Z,21.69
2018-08-04T06:08:29.341Z,21.67
2018-08-04T06:09:29.337Z,21.68
2018-08-04T06:10:29.334Z,21.68
2018-08-04T06:11:29.329Z,21.75
2018-08-04T06:12:29.319Z,21.65
2018-08-04T06:13:29.310Z,21.72
2018-08-04T06:14:29.302Z,21.64
2018-08-04T06:15:29.298Z,21.71
2018-08-04T06:16:29.289Z,21.65
2018-08-04T06:17:29.286Z,21.68
2018-08-04T06:18:29.276Z,21.71
2018-08-04T06:19:29.269Z,21.72
2018-08-04T06:20:29.267Z,21.67
2018-08-04T06:21:29.258Z,21.71
2018-08-04T06:22:29.253Z,21.68
2018-08-04T06:23:29.243Z,21.67
2018-08-04T06:24:29.236Z,21.68
2018-08-04T06:25:29.227Z,21.72
2018-08-04T06:26:29.222Z,21.67
2018-08-04T06:27:29.222Z,21.71
2018-08-04T06:28:29.212Z,21.71
2018-08-04T06:29:29.205Z,21.68
2018-08-04T06:30:29.215Z,21.71
2018-08-04T06:31:29.194Z,21.72
2018-08-04T06:32:29.198Z,21.72
2018-08-04T06:33:29.177Z,21.79
2018-08-04T06:34:29.177Z,21.80
2018-08-04T06:35:29.170Z,21.90
2018-08-04T06:36:29.158Z,21.84
2018-08-04T06:37:29.154Z,21.92
2018-08-04T06:38:29.152Z,22.00
2018-08-04T06:39:29.142Z,21.99
2018-08-04T06:40:29.139Z,21.96
2018-08-04T06:41:29.140Z,21.91
2018-08-04T06:42:29.119Z,21.99
2018-08-04T06:43:29.114Z,21.91
2018-08-04T06:44:29.107Z,22.03
2018-08-04T06:45:29.143Z,22.05
2018-08-04T06:46:29.091Z,22.05
2018-08-04T06:47:29.089Z,22.03
2018-08-04T06:48:29.079Z,21.90
2018-08-04T06:49:29.073Z,21.99
2018-08-04T06:50:29.074Z,22.03
2018-08-04T06:51:29.064Z,22.10
2018-08-04T06:52:29.056Z,22.15
2018-08-04T06:53:29.051Z,22.21
2018-08-04T06:54:29.050Z,22.18
2018-08-04T06:55:29.038Z,22.22
2018-08-04T06:56:29.033Z,22.21
2018-08-04T06:57:29.034Z,22.21
2018-08-04T06:58:29.017Z,22.18
2018-08-04T06:59:29.011Z,22.18
2018-08-04T07:00:29.011Z,22.18
2018-08-04T07:01:28.999Z,22.24
2018-08-04T07:02:28.991Z,22.30
2018-08-04T07:03:28.986Z,22.25
2018-08-04T07:04:28.981Z,22.36
2018-08-04T07:05:28.971Z,22.35
2018-08-04T07:06:28.964Z,22.47
2018-08-04T07:07:28.962Z,22.51
2018-08-04T07:08:28.958Z,22.58
2018-08-04T07:09:28.952Z,22.58
2018-08-04T07:10:28.950Z,22.57
2018-08-04T07:11:28.931Z,22.61
2018-08-04T07:12:28.930Z,22.62
2018-08-04T07:13:28.923Z,22.67
2018-08-04T07:14:28.924Z,22.80
2018-08-04T07:15:28.914Z,22.82
2018-08-04T07:16:28.906Z,22.82
2018-08-04T07:17:28.897Z,22.76
2018-08-04T07:18:28.892Z,22.77
2018-08-04T07:19:28.884Z,22.82
2018-08-04T07:20:28.880Z,22.80
2018-08-04T07:21:28.873Z,22.82
2018-08-04T07:22:28.861Z,22.79
2018-08-04T07:23:28.856Z,22.80
2018-08-04T07:24:28.849Z,22.79
2018-08-04T07:25:28.852Z,22.73
2018-08-04T07:26:28.847Z,22.70
2018-08-04T07:27:28.839Z,22.73
2018-08-04T07:28:28.834Z,22.83
2018-08-04T07:29:28.822Z,22.88
2018-08-04T07:30:28.825Z,22.92
2018-08-04T07:31:28.815Z,22.97
2018-08-04T07:32:28.809Z,22.92
2018-08-04T07:33:28.798Z,22.90
2018-08-04T07:34:28.793Z,23.02
2018-08-04T07:35:28.788Z,22.98
2018-08-04T07:36:28.782Z,22.92
2018-08-04T07:37:28.778Z,22.92
2018-08-04T07:38:28.771Z,22.90
2018-08-04T07:39:28.766Z,22.90
2018-08-04T07:40:28.826Z,22.95
2018-08-04T07:41:28.747Z,22.95
2018-08-04T07:42:28.744Z,22.88
2018-08-04T07:43:28.740Z,22.97
2018-08-04T07:44:28.732Z,23.10
2018-08-04T07:45:28.724Z,23.15
2018-08-04T07:46:28.725Z,23.13
2018-08-04T07:47:28.758Z,23.12
2018-08-04T07:48:28.713Z,23.15
2018-08-04T07:49:28.705Z,23.20
2018-08-04T07:50:28.708Z,23.25
2018-08-04T07:51:28.689Z,23.39
2018-08-04T07:52:28.683Z,23.48
2018-08-04T07:53:28.677Z,23.61
2018-08-04T07:54:28.679Z,23.75
2018-08-04T07:55:28.671Z,23.73
2018-08-04T07:56:28.662Z,23.94
2018-08-04T07:57:28.656Z,24.03
2018-08-04T07:58:28.655Z,24.06
2018-08-04T07:59:28.691Z,24.02
2018-08-04T08:00:28.642Z,24.02
2018-08-04T08:01:28.630Z,23.93
2018-08-04T08:02:28.630Z,24.08
2018-08-04T08:03:28.617Z,24.16
2018-08-04T08:04:28.613Z,24.30
2018-08-04T08:05:28.611Z,24.21
2018-08-04T08:06:28.601Z,24.31
2018-08-04T08:07:28.605Z,24.32
2018-08-04T08:08:28.589Z,24.24
2018-08-04T08:09:28.588Z,24.24
2018-08-04T08:10:28.646Z,24.27
2018-08-04T08:11:28.581Z,24.21
2018-08-04T08:12:28.574Z,24.21
2018-08-04T08:13:28.570Z,24.13
2018-08-04T08:14:28.559Z,24.10
2018-08-04T08:15:28.559Z,24.22
2018-08-04T08:16:28.551Z,24.13
2018-08-04T08:17:28.551Z,24.10
2018-08-04T08:18:28.540Z,24.05
2018-08-04T08:19:28.645Z,24.15
2018-08-04T08:20:28.558Z,24.31
2018-08-04T08:21:28.521Z,24.34
2018-08-04T08:22:28.517Z,24.46
2018-08-04T08:23:28.516Z,24.60
2018-08-04T08:24:28.514Z,24.69
2018-08-04T08:25:28.505Z,24.78
2018-08-04T08:26:28.496Z,24.98
2018-08-04T08:27:28.495Z,25.10
2018-08-04T08:28:28.486Z,25.23
2018-08-04T08:29:28.480Z,25.24
2018-08-04T08:30:28.473Z,25.30
2018-08-04T08:31:28.521Z,25.43
2018-08-04T08:32:28.477Z,25.50
2018-08-04T08:33:28.458Z,25.61
2018-08-04T08:34:28.453Z,25.58
2018-08-04T08:35:28.451Z,25.54
2018-08-04T08:36:28.445Z,25.51
2018-08-04T08:37:28.442Z,25.64
2018-08-04T08:38:28.434Z,25.69
2018-08-04T08:39:28.433Z,25.79
2018-08-04T08:40:28.496Z,25.83
2018-08-04T08:41:28.422Z,25.87
2018-08-04T08:42:28.415Z,25.87
2018-08-04T08:43:28.410Z,25.72
2018-08-04T08:44:28.400Z,25.83
2018-08-04T08:45:28.395Z,25.92
2018-08-04T08:46:28.391Z,25.90
2018-08-04T08:47:28.393Z,26.01
2018-08-04T08:48:28.382Z,26.12
2018-08-04T08:49:28.379Z,26.21
2018-08-04T08:50:28.376Z,26.23
2018-08-04T08:51:28.373Z,26.33
2018-08-04T08:52:28.364Z,26.40
2018-08-04T08:53:28.582Z,26.51
2018-08-04T08:54:28.360Z,26.48
2018-08-04T08:55:28.350Z,26.55
2018-08-04T08:56:28.350Z,26.44
2018-08-04T08:57:28.348Z,26.54
2018-08-04T08:58:28.339Z,26.66
2018-08-04T08:59:28.333Z,26.66
2018-08-04T09:00:28.334Z,26.75
2018-08-04T09:01:28.341Z,26.84
2018-08-04T09:02:28.324Z,26.67
2018-08-04T09:03:28.317Z,26.63
2018-08-04T09:04:28.315Z,26.62
2018-08-04T09:05:28.307Z,26.57
2018-08-04T09:06:28.300Z,26.40
2018-08-04T09:07:28.298Z,26.47
2018-08-04T09:08:28.292Z,26.55
2018-08-04T09:09:28.308Z,26.57
2018-08-04T09:10:28.288Z,26.57
2018-08-04T09:11:28.286Z,26.65
2018-08-04T09:12:28.272Z,26.57
2018-08-04T09:13:28.274Z,26.65
2018-08-04T09:14:28.270Z,26.58
2018-08-04T09:15:28.270Z,26.65
2018-08-04T09:16:28.261Z,26.69
2018-08-04T09:17:28.269Z,26.69
2018-08-04T09:18:28.245Z,26.73
2018-08-04T09:19:28.247Z,26.73
2018-08-04T09:20:28.242Z,26.72
2018-08-04T09:21:28.241Z,26.70
2018-08-04T09:22:28.230Z,26.72
2018-08-04T09:23:28.235Z,26.70
2018-08-04T09:24:28.226Z,26.72
2018-08-04T09:25:28.219Z,26.69
2018-08-04T09:26:28.218Z,26.72
2018-08-04T09:27:28.214Z,26.63
2018-08-04T09:28:28.209Z,26.69
2018-08-04T09:29:28.198Z,26.84
2018-08-04T09:30:28.217Z,26.84
2018-08-04T09:31:28.198Z,26.82
2018-08-04T09:32:28.193Z,26.82
2018-08-04T09:33:28.189Z,26.89
2018-08-04T09:34:28.191Z,26.91
2018-08-04T09:35:28.178Z,26.82
2018-08-04T09:36:28.174Z,26.91
2018-08-04T09:37:28.175Z,26.97
2018-08-04T09:38:28.164Z,27.02
2018-08-04T09:39:28.161Z,27.02
2018-08-04T09:40:28.164Z,26.91
2018-08-04T09:41:28.159Z,26.95
2018-08-04T09:42:28.147Z,26.82
2018-08-04T09:43:28.144Z,26.91
2018-08-04T09:44:28.136Z,27.00
2018-08-04T09:45:28.139Z,27.13
2018-08-04T09:46:28.135Z,27.09
2018-08-04T09:47:28.128Z,27.24
2018-08-04T09:48:28.133Z,27.24
2018-08-04T09:49:28.119Z,27.17
2018-08-04T09:50:28.129Z,27.04
2018-08-04T09:51:28.120Z,27.17
2018-08-04T09:52:28.172Z,27.13
2018-08-04T09:53:28.109Z,27.12
2018-08-04T09:54:28.096Z,27.02
2018-08-04T09:55:28.102Z,27.12
2018-08-04T09:56:28.096Z,26.94
2018-08-04T09:57:28.088Z,27.04
2018-08-04T09:58:28.084Z,27.06
2018-08-04T09:59:28.085Z,26.95
2018-08-04T10:00:28.085Z,26.87
2018-08-04T10:01:28.074Z,26.89
2018-08-04T10:02:28.065Z,27.04
2018-08-04T10:03:28.067Z,26.95
2018-08-04T10:04:28.056Z,27.03
2018-08-04T10:05:28.059Z,27.13
2018-08-04T10:06:28.057Z,27.04
2018-08-04T10:07:28.048Z,27.02
2018-08-04T10:08:28.047Z,26.94
2018-08-04T10:09:28.041Z,27.07
2018-08-04T10:10:28.036Z,27.18
2018-08-04T10:11:28.038Z,27.34
2018-08-04T10:12:28.028Z,27.41
2018-08-04T10:13:28.028Z,27.47
2018-08-04T10:14:28.029Z,27.47
2018-08-04T10:15:28.013Z,27.62
2018-08-04T10:16:28.013Z,27.65
2018-08-04T10:17:28.005Z,27.84
2018-08-04T10:18:28.006Z,27.93
2018-08-04T10:19:28.022Z,27.94
2018-08-04T10:20:27.995Z,27.97
2018-08-04T10:21:27.995Z,27.96
2018-08-04T10:22:27.995Z,27.90
2018-08-04T10:23:27.993Z,28.07
2018-08-04T10:24:27.976Z,28.03
2018-08-04T10:25:27.976Z,27.85
2018-08-04T10:26:27.978Z,27.62
2018-08-04T10:27:27.970Z,27.55
2018-08-04T10:28:27.966Z,27.65
2018-08-04T10:29:27.960Z,27.84
2018-08-04T10:30:27.956Z,27.96
2018-08-04T10:31:27.952Z,27.94
2018-08-04T10:32:27.997Z,28.04
2018-08-04T10:33:27.949Z,28.15
2018-08-04T10:34:27.941Z,28.21
2018-08-04T10:35:27.941Z,28.25
2018-08-04T10:36:27.935Z,28.30
2018-08-04T10:37:27.928Z,28.39
2018-08-04T10:38:27.982Z,28.43
2018-08-04T10:39:27.923Z,28.44
2018-08-04T10:40:27.921Z,28.51
2018-08-04T10:41:27.912Z,28.54
2018-08-04T10:42:27.914Z,28.43
2018-08-04T10:43:27.910Z,28.55
2018-08-04T10:44:27.904Z,28.52
2018-08-04T10:45:27.905Z,28.43
2018-08-04T10:46:27.900Z,28.29
2018-08-04T10:47:27.894Z,28.24
2018-08-04T10:48:27.892Z,28.00
2018-08-04T10:49:27.936Z,27.97
2018-08-04T10:50:27.893Z,28.11
2018-08-04T10:51:27.889Z,28.22
2018-08-04T10:52:27.877Z,28.25
2018-08-04T10:53:27.874Z,28.34
2018-08-04T10:54:27.872Z,28.41
2018-08-04T10:55:27.872Z,28.49
2018-08-04T10:56:27.864Z,28.49
2018-08-04T10:57:27.861Z,28.64
2018-08-04T10:58:27.859Z,28.66
2018-08-04T10:59:27.853Z,28.81
2018-08-04T11:00:27.855Z,28.77
2018-08-04T11:01:27.851Z,28.88
2018-08-04T11:02:27.851Z,28.88
2018-08-04T11:03:27.845Z,28.98
2018-08-04T11:04:27.837Z,29.05
2018-08-04T11:05:27.834Z,29.14
2018-08-04T11:06:27.832Z,29.15
2018-08-04T11:07:27.826Z,29.21
2018-08-04T11:08:27.837Z,29.16
2018-08-04T11:09:27.825Z,29.18
2018-08-04T11:10:27.823Z,29.15
2018-08-04T11:11:27.842Z,29.05
2018-08-04T11:12:27.905Z,29.21
2018-08-04T11:13:27.809Z,29.23
2018-08-04T11:14:27.809Z,29.27
2018-08-04T11:15:27.809Z,29.19
2018-08-04T11:16:27.803Z,29.24
2018-08-04T11:17:27.797Z,29.18
2018-08-04T11:18:27.798Z,29.19
2018-08-04T11:19:27.793Z,29.19
2018-08-04T11:20:27.796Z,29.19
2018-08-04T11:21:27.788Z,29.33
2018-08-04T11:22:27.786Z,29.42
2018-08-04T11:23:27.784Z,29.42
2018-08-04T11:24:27.798Z,29.48
2018-08-04T11:25:27.773Z,29.45
2018-08-04T11:26:27.777Z,29.58
2018-08-04T11:27:27.769Z,29.67
2018-08-04T11:28:27.767Z,29.70
2018-08-04T11:29:27.764Z,29.87
2018-08-04T11:30:27.760Z,29.85
2018-08-04T11:31:27.761Z,29.86
2018-08-04T11:32:27.760Z,29.92
2018-08-04T11:33:27.750Z,29.78
2018-08-04T11:34:27.750Z,29.87
2018-08-04T11:35:27.752Z,29.89
2018-08-04T11:36:27.748Z,30.08
2018-08-04T11:37:27.743Z,29.97
2018-08-04T11:38:27.739Z,30.00
2018-08-04T11:39:27.738Z,30.05
2018-08-04T11:40:27.735Z,29.94
2018-08-04T11:41:27.735Z,30.10
2018-08-04T11:42:27.731Z,29.95
2018-08-04T11:43:27.732Z,29.94
2018-08-04T11:44:27.725Z,29.97
2018-08-04T11:45:27.779Z,30.02
2018-08-04T11:46:27.718Z,30.13
2018-08-04T11:47:27.723Z,30.02
2018-08-04T11:48:27.716Z,30.08
2018-08-04T11:49:27.716Z,30.13
2018-08-04T11:50:27.712Z,30.05
2018-08-04T11:51:27.761Z,30.23
2018-08-04T11:52:27.704Z,30.17
2018-08-04T11:53:27.700Z,30.31
2018-08-04T11:54:27.702Z,30.39
2018-08-04T11:55:27.700Z,30.45
2018-08-04T11:56:27.694Z,30.57
2018-08-04T11:57:27.689Z,30.64
2018-08-04T11:58:27.738Z,30.67
2018-08-04T11:59:27.692Z,30.54
2018-08-04T12:00:27.696Z,30.58
2018-08-04T12:01:27.688Z,30.47
2018-08-04T12:02:27.684Z,30.60
2018-08-04T12:03:27.680Z,30.58
2018-08-04T12:04:27.689Z,30.54
2018-08-04T12:05:27.698Z,30.60
2018-08-04T12:06:27.684Z,30.55
2018-08-04T12:07:27.692Z,30.26
2018-08-04T12:08:27.671Z,30.11
2018-08-04T12:09:27.679Z,30.02
2018-08-04T12:10:27.665Z,30.10
2018-08-04T12:11:27.667Z,30.17
2018-08-04T12:12:27.659Z,30.35
2018-08-04T12:13:27.656Z,30.46
2018-08-04T12:14:27.659Z,30.54
2018-08-04T12:15:27.657Z,30.65
2018-08-04T12:16:27.655Z,30.72
2018-08-04T12:17:27.658Z,30.83
2018-08-04T12:18:27.646Z,30.88
2018-08-04T12:19:27.648Z,30.98
2018-08-04T12:20:27.642Z,31.10
2018-08-04T12:21:27.642Z,31.13
2018-08-04T12:22:27.645Z,31.14
2018-08-04T12:23:27.636Z,31.16
2018-08-04T12:24:27.641Z,31.25
2018-08-04T12:25:27.642Z,31.25
2018-08-04T12:26:27.634Z,31.20
2018-08-04T12:27:27.627Z,31.32
2018-08-04T12:28:27.634Z,31.28
2018-08-04T12:29:27.628Z,31.25
2018-08-04T12:30:27.630Z,31.31
2018-08-04T12:31:27.676Z,31.31
2018-08-04T12:32:27.624Z,31.29
2018-08-04T12:33:27.622Z,31.31
2018-08-04T12:34:27.621Z,31.34
2018-08-04T12:35:27.622Z,31.23
2018-08-04T12:36:27.623Z,31.36
2018-08-04T12:37:27.640Z,31.28
2018-08-04T12:38:27.614Z,31.38
2018-08-04T12:39:27.612Z,31.39
2018-08-04T12:40:27.615Z,31.48
2018-08-04T12:41:27.611Z,31.51
2018-08-04T12:42:27.607Z,31.56
2018-08-04T12:43:27.613Z,31.36
2018-08-04T12:44:27.607Z,31.10
2018-08-04T12:45:27.617Z,30.77
2018-08-04T12:46:27.603Z,30.58
2018-08-04T12:47:27.599Z,30.47
2018-08-04T12:48:27.603Z,30.34
2018-08-04T12:49:27.598Z,30.22
2018-08-04T12:50:27.594Z,30.39
2018-08-04T12:51:27.617Z,30.43
2018-08-04T12:52:27.594Z,30.46